sensor_id;sensor_type;location;lat;lon;timestamp;P1;durP1;ratioP1;P2;durP2;ratioP2
38117;SDS011;23928;47.562;7.508;2023-03-26T00:00:41;4.57;;;1.73;;
38117;SDS011;23928;47.562;7.508;2023-03-26T00:03:11;5.07;;;1.47;;
38117;SDS011;23928;47.562;7.508;2023-03-26T00:05:39;5.93;;;1.57;;
38117;SDS011;23928;47.562;7.508;2023-03-26T00:08:05;5.10;;;1.70;;
38117;SDS011;23928;47.562;7.508;2023-03-26T00:10:34;7.70;;;2.00;;
38117;SDS011;23928;47.562;7.508;2023-03-26T00:13:05;7.40;;;1.77;;
38117;SDS011;23928;47.562;7.508;2023-03-26T00:15:32;6.90;;;1.50;;
38117;SDS011;23928;47.562;7.508;2023-03-26T00:17:58;5.67;;;1.60;;
38117;SDS011;23928;47.562;7.508;2023-03-26T00:20:27;5.10;;;1.70;;
38117;SDS011;23928;47.562;7.508;2023-03-26T00:22:54;7.73;;;1.60;;
38117;SDS011;23928;47.562;7.508;2023-03-26T00:25:21;3.43;;;1.30;;
38117;SDS011;23928;47.562;7.508;2023-03-26T00:27:47;5.20;;;1.80;;
38117;SDS011;23928;47.562;7.508;2023-03-26T00:30:14;5.50;;;1.47;;
38117;SDS011;23928;47.562;7.508;2023-03-26T00:32:40;3.97;;;1.53;;
38117;SDS011;23928;47.562;7.508;2023-03-26T00:35:06;5.50;;;2.10;;
38117;SDS011;23928;47.562;7.508;2023-03-26T00:37:32;5.37;;;1.70;;
38117;SDS011;23928;47.562;7.508;2023-03-26T00:39:58;3.80;;;1.40;;
38117;SDS011;23928;47.562;7.508;2023-03-26T00:42:27;7.13;;;2.17;;
38117;SDS011;23928;47.562;7.508;2023-03-26T00:44:53;3.83;;;1.40;;
38117;SDS011;23928;47.562;7.508;2023-03-26T00:47:21;5.13;;;1.90;;
38117;SDS011;23928;47.562;7.508;2023-03-26T00:49:51;7.43;;;1.73;;
38117;SDS011;23928;47.562;7.508;2023-03-26T00:52:17;3.47;;;1.53;;
38117;SDS011;23928;47.562;7.508;2023-03-26T00:54:46;7.47;;;1.77;;
38117;SDS011;23928;47.562;7.508;2023-03-26T00:57:14;4.70;;;1.80;;
38117;SDS011;23928;47.562;7.508;2023-03-26T00:59:40;6.43;;;2.00;;
38117;SDS011;23928;47.562;7.508;2023-03-26T01:02:06;6.33;;;2.20;;
38117;SDS011;23928;47.562;7.508;2023-03-26T01:04:35;5.87;;;2.27;;
38117;SDS011;23928;47.562;7.508;2023-03-26T01:07:34;11.33;;;2.47;;
38117;SDS011;23928;47.562;7.508;2023-03-26T01:09:54;7.47;;;2.57;;
38117;SDS011;23928;47.562;7.508;2023-03-26T01:12:23;5.40;;;2.10;;
38117;SDS011;23928;47.562;7.508;2023-03-26T01:14:56;5.40;;;1.70;;
38117;SDS011;23928;47.562;7.508;2023-03-26T01:17:24;8.17;;;2.30;;
38117;SDS011;23928;47.562;7.508;2023-03-26T01:20:12;7.53;;;2.27;;
38117;SDS011;23928;47.562;7.508;2023-03-26T01:22:45;5.10;;;2.23;;
38117;SDS011;23928;47.562;7.508;2023-03-26T01:25:17;7.73;;;2.10;;
38117;SDS011;23928;47.562;7.508;2023-03-26T01:27:47;7.03;;;2.00;;
38117;SDS011;23928;47.562;7.508;2023-03-26T01:30:33;5.87;;;2.33;;
38117;SDS011;23928;47.562;7.508;2023-03-26T01:41:40;5.73;;;2.20;;
38117;SDS011;23928;47.562;7.508;2023-03-26T01:46:54;7.97;;;2.00;;
38117;SDS011;23928;47.562;7.508;2023-03-26T01:49:22;6.40;;;2.07;;
38117;SDS011;23928;47.562;7.508;2023-03-26T01:51:52;6.57;;;2.30;;
38117;SDS011;23928;47.562;7.508;2023-03-26T01:54:20;4.90;;;1.97;;
38117;SDS011;23928;47.562;7.508;2023-03-26T02:02:17;4.60;;;1.90;;
38117;SDS011;23928;47.562;7.508;2023-03-26T02:10:27;9.03;;;1.50;;
38117;SDS011;23928;47.562;7.508;2023-03-26T02:12:54;6.93;;;1.77;;
38117;SDS011;23928;47.562;7.508;2023-03-26T02:15:21;6.33;;;1.60;;
38117;SDS011;23928;47.562;7.508;2023-03-26T02:17:47;6.97;;;2.07;;
38117;SDS011;23928;47.562;7.508;2023-03-26T02:20:14;9.20;;;2.77;;
38117;SDS011;23928;47.562;7.508;2023-03-26T02:22:42;8.10;;;2.30;;
38117;SDS011;23928;47.562;7.508;2023-03-26T02:25:11;5.33;;;1.80;;
38117;SDS011;23928;47.562;7.508;2023-03-26T02:27:39;5.57;;;1.90;;
38117;SDS011;23928;47.562;7.508;2023-03-26T02:30:05;8.07;;;2.33;;
38117;SDS011;23928;47.562;7.508;2023-03-26T02:32:32;5.80;;;1.70;;
38117;SDS011;23928;47.562;7.508;2023-03-26T02:34:59;7.10;;;2.03;;
38117;SDS011;23928;47.562;7.508;2023-03-26T02:37:25;5.63;;;1.70;;
38117;SDS011;23928;47.562;7.508;2023-03-26T02:39:51;4.10;;;1.63;;
38117;SDS011;23928;47.562;7.508;2023-03-26T02:42:16;7.80;;;2.00;;
38117;SDS011;23928;47.562;7.508;2023-03-26T02:44:42;6.80;;;2.27;;
38117;SDS011;23928;47.562;7.508;2023-03-26T02:47:08;5.43;;;1.70;;
38117;SDS011;23928;47.562;7.508;2023-03-26T02:49:33;3.60;;;1.47;;
38117;SDS011;23928;47.562;7.508;2023-03-26T02:51:59;8.43;;;1.90;;
38117;SDS011;23928;47.562;7.508;2023-03-26T02:54:25;4.13;;;1.80;;
38117;SDS011;23928;47.562;7.508;2023-03-26T02:56:51;4.43;;;1.40;;
38117;SDS011;23928;47.562;7.508;2023-03-26T02:59:16;5.80;;;2.10;;
38117;SDS011;23928;47.562;7.508;2023-03-26T03:01:42;4.90;;;1.67;;
38117;SDS011;23928;47.562;7.508;2023-03-26T03:04:09;4.90;;;1.67;;
38117;SDS011;23928;47.562;7.508;2023-03-26T03:06:36;4.83;;;1.60;;
38117;SDS011;23928;47.562;7.508;2023-03-26T03:09:03;4.17;;;1.43;;
38117;SDS011;23928;47.562;7.508;2023-03-26T03:11:30;4.57;;;1.60;;
38117;SDS011;23928;47.562;7.508;2023-03-26T03:13:55;7.13;;;2.13;;
38117;SDS011;23928;47.562;7.508;2023-03-26T03:16:21;3.80;;;1.70;;
38117;SDS011;23928;47.562;7.508;2023-03-26T03:18:47;6.37;;;1.77;;
38117;SDS011;23928;47.562;7.508;2023-03-26T03:21:20;7.23;;;2.17;;
38117;SDS011;23928;47.562;7.508;2023-03-26T03:23:50;7.50;;;1.70;;
38117;SDS011;23928;47.562;7.508;2023-03-26T03:26:18;4.80;;;1.57;;
38117;SDS011;23928;47.562;7.508;2023-03-26T03:28:51;5.20;;;1.70;;
38117;SDS011;23928;47.562;7.508;2023-03-26T03:31:18;7.63;;;1.50;;
38117;SDS011;23928;47.562;7.508;2023-03-26T03:33:43;4.00;;;1.47;;
38117;SDS011;23928;47.562;7.508;2023-03-26T03:36:10;5.07;;;1.50;;
38117;SDS011;23928;47.562;7.508;2023-03-26T03:38:37;3.70;;;1.37;;
38117;SDS011;23928;47.562;7.508;2023-03-26T03:41:04;3.07;;;1.37;;
38117;SDS011;23928;47.562;7.508;2023-03-26T03:43:31;10.77;;;1.63;;
38117;SDS011;23928;47.562;7.508;2023-03-26T03:45:57;4.80;;;1.50;;
38117;SDS011;23928;47.562;7.508;2023-03-26T03:48:23;4.87;;;1.40;;
38117;SDS011;23928;47.562;7.508;2023-03-26T03:50:49;4.20;;;1.93;;
38117;SDS011;23928;47.562;7.508;2023-03-26T03:53:15;5.53;;;1.63;;
38117;SDS011;23928;47.562;7.508;2023-03-26T03:55:42;4.80;;;1.90;;
38117;SDS011;23928;47.562;7.508;2023-03-26T03:58:20;7.43;;;1.60;;
38117;SDS011;23928;47.562;7.508;2023-03-26T04:00:50;7.60;;;1.87;;
38117;SDS011;23928;47.562;7.508;2023-03-26T04:03:16;2.50;;;1.30;;
38117;SDS011;23928;47.562;7.508;2023-03-26T04:05:43;3.87;;;1.40;;
38117;SDS011;23928;47.562;7.508;2023-03-26T04:08:14;1.93;;;1.10;;
38117;SDS011;23928;47.562;7.508;2023-03-26T04:10:40;4.00;;;1.30;;
38117;SDS011;23928;47.562;7.508;2023-03-26T04:13:07;2.23;;;1.17;;
38117;SDS011;23928;47.562;7.508;2023-03-26T04:15:33;4.53;;;1.50;;
38117;SDS011;23928;47.562;7.508;2023-03-26T04:18:00;2.47;;;1.43;;
38117;SDS011;23928;47.562;7.508;2023-03-26T04:20:25;5.57;;;1.70;;
38117;SDS011;23928;47.562;7.508;2023-03-26T04:22:51;3.97;;;1.60;;
38117;SDS011;23928;47.562;7.508;2023-03-26T04:25:17;4.80;;;1.43;;
38117;SDS011;23928;47.562;7.508;2023-03-26T04:27:43;4.87;;;1.90;;
38117;SDS011;23928;47.562;7.508;2023-03-26T04:30:10;4.23;;;1.90;;
38117;SDS011;23928;47.562;7.508;2023-03-26T04:32:40;4.17;;;1.40;;
38117;SDS011;23928;47.562;7.508;2023-03-26T04:35:06;5.23;;;2.17;;
38117;SDS011;23928;47.562;7.508;2023-03-26T04:37:36;6.70;;;1.87;;
38117;SDS011;23928;47.562;7.508;2023-03-26T04:40:05;7.37;;;2.00;;
38117;SDS011;23928;47.562;7.508;2023-03-26T04:42:54;4.47;;;1.90;;
38117;SDS011;23928;47.562;7.508;2023-03-26T04:45:22;6.00;;;2.53;;
38117;SDS011;23928;47.562;7.508;2023-03-26T04:47:48;9.03;;;1.90;;
38117;SDS011;23928;47.562;7.508;2023-03-26T04:50:14;2.87;;;1.47;;
38117;SDS011;23928;47.562;7.508;2023-03-26T04:52:40;3.70;;;1.87;;
38117;SDS011;23928;47.562;7.508;2023-03-26T04:55:11;6.83;;;1.60;;
38117;SDS011;23928;47.562;7.508;2023-03-26T04:57:45;5.90;;;2.00;;
38117;SDS011;23928;47.562;7.508;2023-03-26T05:00:16;4.40;;;1.90;;
38117;SDS011;23928;47.562;7.508;2023-03-26T05:02:45;9.60;;;2.70;;
38117;SDS011;23928;47.562;7.508;2023-03-26T05:05:14;6.53;;;2.43;;
38117;SDS011;23928;47.562;7.508;2023-03-26T05:07:40;3.23;;;1.50;;
38117;SDS011;23928;47.562;7.508;2023-03-26T05:10:06;8.80;;;1.87;;
38117;SDS011;23928;47.562;7.508;2023-03-26T05:12:32;3.90;;;1.90;;
38117;SDS011;23928;47.562;7.508;2023-03-26T05:14:58;6.23;;;1.60;;
38117;SDS011;23928;47.562;7.508;2023-03-26T05:17:24;8.37;;;2.20;;
38117;SDS011;23928;47.562;7.508;2023-03-26T05:19:50;2.73;;;1.57;;
38117;SDS011;23928;47.562;7.508;2023-03-26T05:22:19;9.37;;;1.80;;
38117;SDS011;23928;47.562;7.508;2023-03-26T05:24:44;6.57;;;1.93;;
38117;SDS011;23928;47.562;7.508;2023-03-26T05:27:14;4.20;;;1.53;;
38117;SDS011;23928;47.562;7.508;2023-03-26T05:29:46;5.50;;;2.27;;
38117;SDS011;23928;47.562;7.508;2023-03-26T05:32:11;7.63;;;2.30;;
38117;SDS011;23928;47.562;7.508;2023-03-26T05:34:38;7.67;;;2.37;;
38117;SDS011;23928;47.562;7.508;2023-03-26T05:37:04;6.40;;;2.53;;
38117;SDS011;23928;47.562;7.508;2023-03-26T05:39:31;3.60;;;2.03;;
38117;SDS011;23928;47.562;7.508;2023-03-26T05:41:57;9.27;;;2.80;;
38117;SDS011;23928;47.562;7.508;2023-03-26T05:44:23;6.43;;;2.63;;
38117;SDS011;23928;47.562;7.508;2023-03-26T05:46:48;4.93;;;1.93;;
38117;SDS011;23928;47.562;7.508;2023-03-26T05:49:15;5.00;;;2.50;;
38117;SDS011;23928;47.562;7.508;2023-03-26T05:51:40;8.87;;;2.87;;
38117;SDS011;23928;47.562;7.508;2023-03-26T05:54:06;9.77;;;3.23;;
38117;SDS011;23928;47.562;7.508;2023-03-26T05:56:32;6.60;;;2.93;;
38117;SDS011;23928;47.562;7.508;2023-03-26T05:58:57;7.93;;;2.60;;
38117;SDS011;23928;47.562;7.508;2023-03-26T06:01:23;4.53;;;2.50;;
38117;SDS011;23928;47.562;7.508;2023-03-26T06:03:49;7.37;;;2.63;;
38117;SDS011;23928;47.562;7.508;2023-03-26T06:06:16;9.10;;;2.63;;
38117;SDS011;23928;47.562;7.508;2023-03-26T06:08:47;8.20;;;2.90;;
38117;SDS011;23928;47.562;7.508;2023-03-26T06:11:15;7.57;;;2.37;;
38117;SDS011;23928;47.562;7.508;2023-03-26T06:13:41;7.73;;;2.43;;
38117;SDS011;23928;47.562;7.508;2023-03-26T06:16:08;8.60;;;2.13;;
38117;SDS011;23928;47.562;7.508;2023-03-26T06:18:35;7.70;;;2.87;;
38117;SDS011;23928;47.562;7.508;2023-03-26T06:21:01;7.37;;;2.70;;
38117;SDS011;23928;47.562;7.508;2023-03-26T06:23:27;7.40;;;2.60;;
38117;SDS011;23928;47.562;7.508;2023-03-26T06:25:53;6.23;;;2.43;;
38117;SDS011;23928;47.562;7.508;2023-03-26T06:28:19;6.90;;;2.37;;
38117;SDS011;23928;47.562;7.508;2023-03-26T06:30:45;5.50;;;2.10;;
38117;SDS011;23928;47.562;7.508;2023-03-26T06:33:10;7.00;;;2.23;;
38117;SDS011;23928;47.562;7.508;2023-03-26T06:35:36;7.10;;;3.03;;
38117;SDS011;23928;47.562;7.508;2023-03-26T06:38:02;13.07;;;3.50;;
38117;SDS011;23928;47.562;7.508;2023-03-26T06:40:28;8.90;;;3.30;;
38117;SDS011;23928;47.562;7.508;2023-03-26T06:42:54;8.57;;;2.93;;
38117;SDS011;23928;47.562;7.508;2023-03-26T06:45:21;7.60;;;3.10;;
38117;SDS011;23928;47.562;7.508;2023-03-26T06:47:46;8.33;;;3.07;;
38117;SDS011;23928;47.562;7.508;2023-03-26T06:50:12;8.40;;;3.20;;
38117;SDS011;23928;47.562;7.508;2023-03-26T06:52:38;11.80;;;3.30;;
38117;SDS011;23928;47.562;7.508;2023-03-26T06:55:04;11.20;;;4.37;;
38117;SDS011;23928;47.562;7.508;2023-03-26T06:57:32;9.43;;;3.43;;
38117;SDS011;23928;47.562;7.508;2023-03-26T06:59:58;7.60;;;4.13;;
38117;SDS011;23928;47.562;7.508;2023-03-26T07:02:23;9.87;;;3.70;;
38117;SDS011;23928;47.562;7.508;2023-03-26T07:04:49;9.87;;;3.20;;
38117;SDS011;23928;47.562;7.508;2023-03-26T07:07:15;4.37;;;3.23;;
38117;SDS011;23928;47.562;7.508;2023-03-26T07:09:42;7.87;;;3.33;;
38117;SDS011;23928;47.562;7.508;2023-03-26T07:12:08;8.03;;;3.50;;
38117;SDS011;23928;47.562;7.508;2023-03-26T07:14:33;16.50;;;9.17;;
38117;SDS011;23928;47.562;7.508;2023-03-26T07:17:02;32.93;;;19.90;;
38117;SDS011;23928;47.562;7.508;2023-03-26T07:19:27;18.30;;;11.80;;
38117;SDS011;23928;47.562;7.508;2023-03-26T07:21:53;9.93;;;8.87;;
38117;SDS011;23928;47.562;7.508;2023-03-26T07:24:19;9.10;;;5.10;;
38117;SDS011;23928;47.562;7.508;2023-03-26T07:26:48;6.57;;;3.10;;
38117;SDS011;23928;47.562;7.508;2023-03-26T07:35:00;4.47;;;2.50;;
38117;SDS011;23928;47.562;7.508;2023-03-26T07:40:40;1.63;;;1.40;;
38117;SDS011;23928;47.562;7.508;2023-03-26T07:46:03;3.23;;;1.00;;
38117;SDS011;23928;47.562;7.508;2023-03-26T07:48:38;0.93;;;0.93;;
38117;SDS011;23928;47.562;7.508;2023-03-26T07:51:08;2.00;;;1.17;;
38117;SDS011;23928;47.562;7.508;2023-03-26T07:53:35;1.83;;;1.30;;
38117;SDS011;23928;47.562;7.508;2023-03-26T07:56:03;1.20;;;1.03;;
38117;SDS011;23928;47.562;7.508;2023-03-26T08:15:31;3.37;;;1.50;;
38117;SDS011;23928;47.562;7.508;2023-03-26T08:20:50;3.73;;;1.47;;
38117;SDS011;23928;47.562;7.508;2023-03-26T08:23:26;3.53;;;2.80;;
38117;SDS011;23928;47.562;7.508;2023-03-26T08:31:42;6.67;;;4.07;;
38117;SDS011;23928;47.562;7.508;2023-03-26T08:34:10;5.63;;;1.90;;
38117;SDS011;23928;47.562;7.508;2023-03-26T08:36:36;7.43;;;2.10;;
38117;SDS011;23928;47.562;7.508;2023-03-26T08:39:03;2.07;;;1.50;;
38117;SDS011;23928;47.562;7.508;2023-03-26T09:28:51;3.33;;;1.30;;
38117;SDS011;23928;47.562;7.508;2023-03-26T09:31:49;3.03;;;1.30;;
38117;SDS011;23928;47.562;7.508;2023-03-26T09:34:29;2.87;;;1.10;;
38117;SDS011;23928;47.562;7.508;2023-03-26T09:55:29;1.63;;;0.97;;
38117;SDS011;23928;47.562;7.508;2023-03-26T09:58:22;2.87;;;0.80;;
38117;SDS011;23928;47.562;7.508;2023-03-26T10:03:39;2.43;;;1.10;;
38117;SDS011;23928;47.562;7.508;2023-03-26T10:08:47;2.40;;;1.17;;
38117;SDS011;23928;47.562;7.508;2023-03-26T10:16:43;3.23;;;1.47;;
38117;SDS011;23928;47.562;7.508;2023-03-26T10:28:16;3.30;;;1.43;;
38117;SDS011;23928;47.562;7.508;2023-03-26T10:36:33;1.30;;;0.90;;
38117;SDS011;23928;47.562;7.508;2023-03-26T10:41:58;3.23;;;1.03;;
38117;SDS011;23928;47.562;7.508;2023-03-26T10:44:32;2.50;;;1.20;;
38117;SDS011;23928;47.562;7.508;2023-03-26T10:52:21;3.93;;;1.40;;
38117;SDS011;23928;47.562;7.508;2023-03-26T10:57:40;3.90;;;1.30;;
38117;SDS011;23928;47.562;7.508;2023-03-26T11:00:14;3.87;;;1.40;;
38117;SDS011;23928;47.562;7.508;2023-03-26T11:11:02;4.80;;;1.40;;
38117;SDS011;23928;47.562;7.508;2023-03-26T11:13:50;2.57;;;0.83;;
38117;SDS011;23928;47.562;7.508;2023-03-26T11:16:34;3.23;;;1.00;;
38117;SDS011;23928;47.562;7.508;2023-03-26T11:19:03;3.60;;;1.00;;
38117;SDS011;23928;47.562;7.508;2023-03-26T11:26:54;1.97;;;0.83;;
38117;SDS011;23928;47.562;7.508;2023-03-26T11:29:36;2.77;;;0.90;;
38117;SDS011;23928;47.562;7.508;2023-03-26T11:32:19;4.00;;;1.00;;
38117;SDS011;23928;47.562;7.508;2023-03-26T11:35:04;1.93;;;0.80;;
38117;SDS011;23928;47.562;7.508;2023-03-26T11:37:54;1.83;;;0.93;;
38117;SDS011;23928;47.562;7.508;2023-03-26T11:40:24;1.80;;;0.93;;
38117;SDS011;23928;47.562;7.508;2023-03-26T11:42:56;2.70;;;0.80;;
38117;SDS011;23928;47.562;7.508;2023-03-26T11:45:26;1.67;;;0.97;;
38117;SDS011;23928;47.562;7.508;2023-03-26T11:47:56;3.93;;;1.20;;
38117;SDS011;23928;47.562;7.508;2023-03-26T11:50:26;5.67;;;0.80;;
38117;SDS011;23928;47.562;7.508;2023-03-26T11:52:58;1.67;;;1.13;;
38117;SDS011;23928;47.562;7.508;2023-03-26T11:55:34;4.03;;;1.00;;
38117;SDS011;23928;47.562;7.508;2023-03-26T11:58:00;2.57;;;1.00;;
38117;SDS011;23928;47.562;7.508;2023-03-26T12:00:29;2.50;;;0.83;;
38117;SDS011;23928;47.562;7.508;2023-03-26T12:02:56;2.27;;;1.00;;
38117;SDS011;23928;47.562;7.508;2023-03-26T12:05:23;2.60;;;0.80;;
38117;SDS011;23928;47.562;7.508;2023-03-26T12:07:58;3.70;;;1.17;;
38117;SDS011;23928;47.562;7.508;2023-03-26T12:10:31;3.37;;;1.00;;
38117;SDS011;23928;47.562;7.508;2023-03-26T12:13:02;2.23;;;0.90;;
38117;SDS011;23928;47.562;7.508;2023-03-26T12:15:56;2.50;;;1.00;;
38117;SDS011;23928;47.562;7.508;2023-03-26T12:18:24;2.50;;;0.97;;
38117;SDS011;23928;47.562;7.508;2023-03-26T12:21:00;2.57;;;0.90;;
38117;SDS011;23928;47.562;7.508;2023-03-26T12:23:37;3.97;;;1.40;;
38117;SDS011;23928;47.562;7.508;2023-03-26T12:26:30;2.00;;;1.00;;
38117;SDS011;23928;47.562;7.508;2023-03-26T12:29:09;1.10;;;0.70;;
38117;SDS011;23928;47.562;7.508;2023-03-26T12:32:19;2.63;;;0.97;;
38117;SDS011;23928;47.562;7.508;2023-03-26T12:34:37;2.23;;;1.03;;
38117;SDS011;23928;47.562;7.508;2023-03-26T12:37:04;2.37;;;1.13;;
38117;SDS011;23928;47.562;7.508;2023-03-26T12:39:38;2.87;;;1.03;;
38117;SDS011;23928;47.562;7.508;2023-03-26T12:42:28;3.53;;;0.97;;
38117;SDS011;23928;47.562;7.508;2023-03-26T12:44:54;3.37;;;0.97;;
38117;SDS011;23928;47.562;7.508;2023-03-26T12:47:23;5.17;;;1.03;;
38117;SDS011;23928;47.562;7.508;2023-03-26T12:49:53;1.60;;;0.60;;
38117;SDS011;23928;47.562;7.508;2023-03-26T12:55:28;4.27;;;0.80;;
38117;SDS011;23928;47.562;7.508;2023-03-26T12:58:17;1.90;;;0.77;;
38117;SDS011;23928;47.562;7.508;2023-03-26T13:01:26;1.37;;;0.60;;
38117;SDS011;23928;47.562;7.508;2023-03-26T13:04:18;2.13;;;0.70;;
38117;SDS011;23928;47.562;7.508;2023-03-26T13:12:42;2.03;;;0.90;;
38117;SDS011;23928;47.562;7.508;2023-03-26T13:15:35;3.20;;;0.73;;
38117;SDS011;23928;47.562;7.508;2023-03-26T13:20:59;4.90;;;1.30;;
38117;SDS011;23928;47.562;7.508;2023-03-26T13:28:53;4.67;;;1.30;;
38117;SDS011;23928;47.562;7.508;2023-03-26T13:34:20;2.73;;;1.10;;
38117;SDS011;23928;47.562;7.508;2023-03-26T13:42:29;2.73;;;0.80;;
38117;SDS011;23928;47.562;7.508;2023-03-26T13:45:50;2.10;;;0.70;;
38117;SDS011;23928;47.562;7.508;2023-03-26T13:51:26;0.70;;;0.40;;
38117;SDS011;23928;47.562;7.508;2023-03-26T13:56:50;1.97;;;0.50;;
38117;SDS011;23928;47.562;7.508;2023-03-26T13:59:29;0.77;;;0.47;;
38117;SDS011;23928;47.562;7.508;2023-03-26T14:02:10;0.20;;;0.20;;
38117;SDS011;23928;47.562;7.508;2023-03-26T14:04:44;1.90;;;0.50;;
38117;SDS011;23928;47.562;7.508;2023-03-26T14:07:14;1.33;;;0.50;;
38117;SDS011;23928;47.562;7.508;2023-03-26T14:09:50;1.50;;;0.83;;
38117;SDS011;23928;47.562;7.508;2023-03-26T14:26:34;1.13;;;0.53;;
38117;SDS011;23928;47.562;7.508;2023-03-26T14:42:53;1.70;;;1.27;;
38117;SDS011;23928;47.562;7.508;2023-03-26T14:53:59;2.97;;;0.30;;
38117;SDS011;23928;47.562;7.508;2023-03-26T14:56:43;0.30;;;0.20;;
38117;SDS011;23928;47.562;7.508;2023-03-26T15:07:57;0.60;;;0.10;;
38117;SDS011;23928;47.562;7.508;2023-03-26T15:28:13;1.10;;;0.50;;
38117;SDS011;23928;47.562;7.508;2023-03-26T15:34:12;0.40;;;0.40;;
38117;SDS011;23928;47.562;7.508;2023-03-26T15:39:39;0.40;;;0.40;;
38117;SDS011;23928;47.562;7.508;2023-03-26T15:59:05;0.43;;;0.20;;
38117;SDS011;23928;47.562;7.508;2023-03-26T16:07:27;0.30;;;0.30;;
38117;SDS011;23928;47.562;7.508;2023-03-26T16:10:19;0.90;;;0.50;;
38117;SDS011;23928;47.562;7.508;2023-03-26T16:13:13;1.97;;;1.60;;
38117;SDS011;23928;47.562;7.508;2023-03-26T16:18:24;10.87;;;7.60;;
38117;SDS011;23928;47.562;7.508;2023-03-26T16:23:54;1.73;;;1.57;;
38117;SDS011;23928;47.562;7.508;2023-03-26T16:29:14;0.30;;;0.20;;
38117;SDS011;23928;47.562;7.508;2023-03-26T16:34:27;3.03;;;1.43;;
38117;SDS011;23928;47.562;7.508;2023-03-26T16:37:25;0.53;;;0.40;;
38117;SDS011;23928;47.562;7.508;2023-03-26T16:43:05;2.70;;;1.43;;
38117;SDS011;23928;47.562;7.508;2023-03-26T16:51:07;0.37;;;0.37;;
38117;SDS011;23928;47.562;7.508;2023-03-26T17:04:17;1.07;;;0.60;;
38117;SDS011;23928;47.562;7.508;2023-03-26T17:07:31;0.50;;;0.50;;
38117;SDS011;23928;47.562;7.508;2023-03-26T17:10:15;0.30;;;0.30;;
38117;SDS011;23928;47.562;7.508;2023-03-26T17:26:50;0.50;;;0.50;;
38117;SDS011;23928;47.562;7.508;2023-03-26T17:29:12;2.50;;;0.87;;
38117;SDS011;23928;47.562;7.508;2023-03-26T17:34:38;2.00;;;1.17;;
38117;SDS011;23928;47.562;7.508;2023-03-26T17:42:32;1.60;;;1.27;;
38117;SDS011;23928;47.562;7.508;2023-03-26T17:45:19;1.63;;;1.50;;
38117;SDS011;23928;47.562;7.508;2023-03-26T17:50:55;2.43;;;1.60;;
38117;SDS011;23928;47.562;7.508;2023-03-26T17:53:29;2.83;;;1.57;;
38117;SDS011;23928;47.562;7.508;2023-03-26T17:55:56;2.47;;;1.77;;
38117;SDS011;23928;47.562;7.508;2023-03-26T17:58:34;1.77;;;1.50;;
38117;SDS011;23928;47.562;7.508;2023-03-26T18:03:35;2.70;;;2.33;;
38117;SDS011;23928;47.562;7.508;2023-03-26T18:06:10;3.90;;;3.20;;
38117;SDS011;23928;47.562;7.508;2023-03-26T18:17:10;2.83;;;1.70;;
38117;SDS011;23928;47.562;7.508;2023-03-26T18:19:50;2.63;;;1.70;;
38117;SDS011;23928;47.562;7.508;2023-03-26T18:22:22;2.20;;;1.70;;
38117;SDS011;23928;47.562;7.508;2023-03-26T18:24:50;2.57;;;1.70;;
38117;SDS011;23928;47.562;7.508;2023-03-26T18:27:21;4.30;;;2.07;;
38117;SDS011;23928;47.562;7.508;2023-03-26T18:29:58;2.33;;;1.77;;
38117;SDS011;23928;47.562;7.508;2023-03-26T18:32:27;3.60;;;2.00;;
38117;SDS011;23928;47.562;7.508;2023-03-26T18:34:58;3.30;;;1.80;;
38117;SDS011;23928;47.562;7.508;2023-03-26T18:37:41;3.57;;;1.80;;
38117;SDS011;23928;47.562;7.508;2023-03-26T18:40:13;5.13;;;2.30;;
38117;SDS011;23928;47.562;7.508;2023-03-26T18:42:52;3.27;;;2.03;;
38117;SDS011;23928;47.562;7.508;2023-03-26T18:47:53;5.60;;;2.87;;
38117;SDS011;23928;47.562;7.508;2023-03-26T18:50:26;7.20;;;4.87;;
38117;SDS011;23928;47.562;7.508;2023-03-26T18:52:55;6.43;;;3.83;;
38117;SDS011;23928;47.562;7.508;2023-03-26T18:55:25;2.80;;;2.37;;
38117;SDS011;23928;47.562;7.508;2023-03-26T18:57:51;3.67;;;2.50;;
38117;SDS011;23928;47.562;7.508;2023-03-26T19:00:21;5.57;;;3.07;;
38117;SDS011;23928;47.562;7.508;2023-03-26T19:02:50;6.80;;;2.47;;
38117;SDS011;23928;47.562;7.508;2023-03-26T19:05:23;1.27;;;1.10;;
38117;SDS011;23928;47.562;7.508;2023-03-26T19:07:52;0.80;;;0.80;;
38117;SDS011;23928;47.562;7.508;2023-03-26T19:10:19;1.40;;;0.90;;
38117;SDS011;23928;47.562;7.508;2023-03-26T19:12:53;0.90;;;0.73;;
38117;SDS011;23928;47.562;7.508;2023-03-26T19:15:24;1.93;;;0.80;;
38117;SDS011;23928;47.562;7.508;2023-03-26T19:17:54;1.23;;;0.80;;
38117;SDS011;23928;47.562;7.508;2023-03-26T19:20:28;1.10;;;0.70;;
38117;SDS011;23928;47.562;7.508;2023-03-26T19:23:02;3.43;;;0.73;;
38117;SDS011;23928;47.562;7.508;2023-03-26T19:25:32;1.17;;;0.80;;
38117;SDS011;23928;47.562;7.508;2023-03-26T19:28:06;2.70;;;0.90;;
38117;SDS011;23928;47.562;7.508;2023-03-26T19:31:06;0.90;;;0.50;;
38117;SDS011;23928;47.562;7.508;2023-03-26T19:33:39;0.40;;;0.40;;
38117;SDS011;23928;47.562;7.508;2023-03-26T19:39:01;0.40;;;0.30;;
38117;SDS011;23928;47.562;7.508;2023-03-26T19:41:35;0.70;;;0.30;;
38117;SDS011;23928;47.562;7.508;2023-03-26T19:46:50;2.00;;;0.60;;
38117;SDS011;23928;47.562;7.508;2023-03-26T19:49:29;0.83;;;0.30;;
38117;SDS011;23928;47.562;7.508;2023-03-26T19:52:04;0.50;;;0.50;;
38117;SDS011;23928;47.562;7.508;2023-03-26T19:54:54;0.93;;;0.60;;
38117;SDS011;23928;47.562;7.508;2023-03-26T19:57:25;0.73;;;0.50;;
38117;SDS011;23928;47.562;7.508;2023-03-26T19:59:51;0.63;;;0.50;;
38117;SDS011;23928;47.562;7.508;2023-03-26T20:02:17;0.37;;;0.37;;
38117;SDS011;23928;47.562;7.508;2023-03-26T20:04:44;2.10;;;0.67;;
38117;SDS011;23928;47.562;7.508;2023-03-26T20:07:10;0.40;;;0.40;;
38117;SDS011;23928;47.562;7.508;2023-03-26T20:09:39;0.90;;;0.40;;
38117;SDS011;23928;47.562;7.508;2023-03-26T20:12:09;1.37;;;0.50;;
38117;SDS011;23928;47.562;7.508;2023-03-26T20:14:35;0.40;;;0.40;;
38117;SDS011;23928;47.562;7.508;2023-03-26T20:17:02;0.93;;;0.40;;
38117;SDS011;23928;47.562;7.508;2023-03-26T20:19:28;1.07;;;0.33;;
38117;SDS011;23928;47.562;7.508;2023-03-26T20:21:54;0.50;;;0.30;;
38117;SDS011;23928;47.562;7.508;2023-03-26T20:24:20;0.77;;;0.50;;
38117;SDS011;23928;47.562;7.508;2023-03-26T20:26:48;0.50;;;0.50;;
38117;SDS011;23928;47.562;7.508;2023-03-26T20:29:14;1.60;;;0.40;;
38117;SDS011;23928;47.562;7.508;2023-03-26T20:31:40;0.63;;;0.63;;
38117;SDS011;23928;47.562;7.508;2023-03-26T20:34:17;1.93;;;0.60;;
38117;SDS011;23928;47.562;7.508;2023-03-26T20:36:44;0.90;;;0.70;;
38117;SDS011;23928;47.562;7.508;2023-03-26T20:39:10;1.17;;;0.80;;
38117;SDS011;23928;47.562;7.508;2023-03-26T20:41:39;0.73;;;0.70;;
38117;SDS011;23928;47.562;7.508;2023-03-26T20:44:10;1.23;;;0.97;;
38117;SDS011;23928;47.562;7.508;2023-03-26T20:46:39;2.07;;;0.77;;
38117;SDS011;23928;47.562;7.508;2023-03-26T20:49:07;1.00;;;0.80;;
38117;SDS011;23928;47.562;7.508;2023-03-26T20:51:34;0.60;;;0.40;;
38117;SDS011;23928;47.562;7.508;2023-03-26T20:54:02;3.43;;;1.17;;
38117;SDS011;23928;47.562;7.508;2023-03-26T20:56:45;0.83;;;0.83;;
38117;SDS011;23928;47.562;7.508;2023-03-26T20:59:15;0.97;;;0.50;;
38117;SDS011;23928;47.562;7.508;2023-03-26T21:01:43;1.70;;;0.40;;
38117;SDS011;23928;47.562;7.508;2023-03-26T21:04:10;1.27;;;0.70;;
38117;SDS011;23928;47.562;7.508;2023-03-26T21:06:37;0.47;;;0.47;;
38117;SDS011;23928;47.562;7.508;2023-03-26T21:09:02;2.67;;;0.80;;
38117;SDS011;23928;47.562;7.508;2023-03-26T21:11:35;0.73;;;0.70;;
38117;SDS011;23928;47.562;7.508;2023-03-26T21:14:20;2.40;;;0.60;;
38117;SDS011;23928;47.562;7.508;2023-03-26T21:16:58;3.00;;;1.07;;
38117;SDS011;23928;47.562;7.508;2023-03-26T21:19:25;0.73;;;0.60;;
38117;SDS011;23928;47.562;7.508;2023-03-26T21:21:54;2.93;;;1.00;;
38117;SDS011;23928;47.562;7.508;2023-03-26T21:27:05;8.47;;;1.30;;